< < Back
Terminal Aerodrome Forecast


Current Version              Previous Versions:   1  2  3  4  5  6  7  8  9  

Terminal Aerodrome Forecast

916
FTUS44 KMOB 011800 AAA
TAFMOB
TAF AMD
KMOB 011808Z 0118/0218 VRB03KT P6SM BKN040
     FM020600 12003KT 5SM BR BKN015=



Latest METAR

024
SAUS80 KWBC 012000 RRH
MTRMOB
METAR KMOB 011956Z 17006KT 10SM SCT037 BKN043 28/22 A2993 RMK AO2 SLP132
T02830217


USA.gov is the U.S. government's official web portal to all federal, state and local government web resources and services.